USCGC Tern — NEOT — position and weather

sailwx.info

Track history (hours):
 
Tides and Currents Weather Stations Pressure Air Temp Water Temp Dewpoint Dewpoint Depression Visibility Wind Speed Wind Dir Waves Ship Positions

USCGC Tern

Last reported at 2014-Dec-22 18:30 UTC. Time now 2014-Dec-22 19:26 UTC.
Position N 37°49' W 122°22'.

Length 26 m; draft 12 m.

Type: Military. MMSI: 366999711.

Date/timePositionNaut miles runAvg speedWind from/ knotsBaromVisibWave heightAir tempDewpointWater temp
2014-Dec-22 18:30N 37°49' W 122°22'0 0.0
2014-Dec-22 17:32N 37°49' W 122°22'0 0.1
2014-Dec-22 16:33N 37°49' W 122°22'73 3.8
2014-Dec-21 21:25N 36°39' W 121°54'2 2.2
2014-Dec-21 20:30N 36°37' W 121°53'0 0.0
2014-Dec-21 19:28N 36°37' W 121°53'0 0.0
2014-Dec-21 18:28N 36°37' W 121°53'0 0.0
2014-Dec-21 17:34N 36°37' W 121°53'0 0.0
2014-Dec-21 16:25N 36°37' W 121°53'71 1.6
2014-Dec-19 20:33N 37°38' W 122°37'7 7.4
2014-Dec-19 19:33N 37°45' W 122°36'9 8.6
2014-Dec-19 18:28N 37°49' W 122°25'1 0.7
2014-Dec-19 17:33N 37°49' W 122°25'2 2.2
2014-Dec-19 16:31N 37°49' W 122°22'0 0.0
2014-Dec-19 15:22N 37°49' W 122°22'0 0.0
2014-Dec-19 14:31N 37°49' W 122°22'0 0.0
2014-Dec-19 13:31N 37°49' W 122°22'0 0.0
2014-Dec-19 12:31N 37°49' W 122°22'0 0.0
2014-Dec-19 11:31N 37°49' W 122°22'0 0.0
2014-Dec-19 10:31N 37°49' W 122°22'0 0.0
2014-Dec-19 09:31N 37°49' W 122°22'0 0.0
2014-Dec-19 08:31N 37°49' W 122°22'0 0.0
2014-Dec-19 07:28N 37°49' W 122°22'0 0.0
2014-Dec-19 06:31N 37°49' W 122°22'0 0.0
2014-Dec-19 05:31N 37°49' W 122°22'0 0.0
2014-Dec-19 04:31N 37°49' W 122°22'0 0.0
2014-Dec-19 03:31N 37°49' W 122°22'0 0.0
2014-Dec-19 02:31N 37°49' W 122°22'0 0.0
2014-Dec-19 01:31N 37°49' W 122°22'0 0.0
2014-Dec-19 00:31N 37°49' W 122°22'0 0.0
2014-Dec-18 23:31N 37°49' W 122°22'0 0.0
2014-Dec-18 22:22N 37°49' W 122°22'1 1.7
2014-Dec-18 21:33N 37°48' W 122°21'0 0.1
2014-Dec-18 20:32N 37°48' W 122°20'1 0.6
2014-Dec-18 19:33N 37°48' W 122°21'8 7.6
2014-Dec-18 18:27N 37°54' W 122°28'0 0.0
2014-Dec-18 17:33N 37°54' W 122°28'0 0.0
2014-Dec-18 16:33N 37°54' W 122°28'0 0.0
2014-Dec-18 15:33N 37°54' W 122°28'0 0.0
2014-Dec-18 14:33N 37°54' W 122°28'0 0.0
2014-Dec-18 13:33N 37°54' W 122°28'0 0.0
2014-Dec-18 12:24N 37°54' W 122°28'0 0.0
2014-Dec-18 11:33N 37°54' W 122°28'0 0.0
2014-Dec-18 10:33N 37°54' W 122°28'0 0.0
2014-Dec-18 09:30N 37°54' W 122°28'0 0.0
2014-Dec-18 08:33N 37°54' W 122°28'0 0.0
2014-Dec-18 07:33N 37°54' W 122°28'0 0.0
2014-Dec-18 06:33N 37°54' W 122°28'0 0.0
2014-Dec-18 05:30N 37°54' W 122°28'0 0.0
2014-Dec-18 04:33N 37°54' W 122°28'0 0.0
2014-Dec-18 03:33N 37°54' W 122°28'0 0.0
2014-Dec-18 02:33N 37°54' W 122°28'0 0.0
2014-Dec-18 01:18N 37°54' W 122°28'0 0.0
2014-Dec-18 00:33N 37°54' W 122°28'0 0.0
2014-Dec-17 23:33N 37°54' W 122°28'0 0.0
2014-Dec-17 22:34N 37°54' W 122°28'0 0.0
2014-Dec-17 21:30N 37°54' W 122°28'0 0.0
2014-Dec-17 20:33N 37°54' W 122°28'0 0.0
2014-Dec-17 19:33N 37°54' W 122°28'0 0.1
2014-Dec-17 18:34N 37°54' W 122°28'7 7.3
2014-Dec-17 17:33N 37°49' W 122°22'0 0.0
2014-Dec-17 16:30N 37°49' W 122°22'0 0.0
2014-Dec-17 15:33N 37°49' W 122°22'0 0.1
2014-Dec-17 14:33N 37°49' W 122°22'8 7.5
2014-Dec-17 13:32N 37°54' W 122°28'0 0.0
2014-Dec-17 12:23N 37°54' W 122°28'0 0.0
2014-Dec-17 11:32N 37°54' W 122°28'0 0.0
2014-Dec-17 10:32N 37°54' W 122°28'0 0.0
2014-Dec-17 09:32N 37°54' W 122°28'0 0.0
2014-Dec-17 08:32N 37°54' W 122°28'0 0.0
2014-Dec-17 07:32N 37°54' W 122°28'0 0.0
2014-Dec-17 06:29N 37°54' W 122°28'0 0.0
2014-Dec-17 05:31N 37°54' W 122°28'0 0.0
2014-Dec-17 04:31N 37°54' W 122°28'0 0.0
2014-Dec-17 03:32N 37°54' W 122°28'0 0.0
2014-Dec-17 02:29N 37°54' W 122°28'0 0.0
2014-Dec-17 01:29N 37°54' W 122°28'0 0.0
2014-Dec-17 00:32N 37°54' W 122°28'2 2.0
2014-Dec-16 23:33N 37°56' W 122°27'6 5.7
2014-Dec-16 22:33N 37°51' W 122°24'2 2.1
2014-Dec-16 21:33N 37°53' W 122°25'0 0.3
2014-Dec-16 20:33N 37°53' W 122°25'2 2.4
2014-Dec-16 19:33N 37°54' W 122°28'0 0.0
2014-Dec-16 18:33N 37°54' W 122°28'0 0.0
2014-Dec-16 17:27N 37°54' W 122°28'0 0.1
2014-Dec-16 16:33N 37°54' W 122°28'0 0.0
2014-Dec-16 15:33N 37°54' W 122°28'0 0.0
2014-Dec-16 14:33N 37°54' W 122°28'0 0.0
2014-Dec-16 13:32N 37°54' W 122°28'0 0.0
2014-Dec-16 12:32N 37°54' W 122°28'0 0.0
2014-Dec-16 11:32N 37°54' W 122°28'0 0.1
2014-Dec-16 10:33N 37°54' W 122°28'0 0.0
2014-Dec-16 09:33N 37°54' W 122°28'0 0.1
2014-Dec-16 08:33N 37°54' W 122°28'0 0.0
2014-Dec-16 07:33N 37°54' W 122°28'0 0.0
2014-Dec-16 06:33N 37°54' W 122°28'0 0.0
2014-Dec-16 05:27N 37°54' W 122°28'0 0.0
2014-Dec-16 04:33N 37°54' W 122°28'0 0.0
2014-Dec-16 03:23N 37°54' W 122°28'0 0.0
2014-Dec-16 02:12N 37°54' W 122°28'0 0.0
2014-Dec-16 01:17N 37°54' W 122°28'0 0.0
2014-Dec-15 23:33N 37°54' W 122°28'3 3.0
2014-Dec-15 22:33N 37°52' W 122°25'1 0.9
2014-Dec-15 21:33N 37°53' W 122°26'1 0.7
2014-Dec-15 20:34N 37°54' W 122°26'2 2.0
2014-Dec-15 19:34N 37°52' W 122°25'4 4.1
2014-Dec-15 18:32N 37°49' W 122°22'0 0.0
2014-Dec-15 17:20N 37°49' W 122°22'0 0.0
2014-Dec-15 16:32N 37°49' W 122°22'0 0.0
2014-Dec-15 15:29N 37°49' W 122°22'0 0.0
2014-Dec-15 14:32N 37°49' W 122°22'0 0.0
2014-Dec-15 13:24N 37°49' W 122°22'0 0.0
2014-Dec-15 12:23N 37°49' W 122°22'0 0.0
2014-Dec-15 11:27N 37°49' W 122°22'0 0.0
2014-Dec-15 10:29N 37°49' W 122°22'0 0.0
2014-Dec-15 09:32N 37°49' W 122°22'0 0.0
2014-Dec-15 08:32N 37°49' W 122°22'0 0.0
2014-Dec-15 07:32N 37°49' W 122°22'0 0.0
2014-Dec-15 06:32N 37°49' W 122°22'0 0.0
2014-Dec-15 05:32N 37°49' W 122°22'0 0.0
2014-Dec-15 04:32N 37°49' W 122°22'0 0.0
2014-Dec-15 03:32N 37°49' W 122°22'0 0.0
2014-Dec-15 02:32N 37°49' W 122°22'0 0.0
2014-Dec-15 01:27N 37°49' W 122°22'0 0.0
2014-Dec-15 00:32N 37°49' W 122°22'0 0.0
2014-Dec-14 23:32N 37°49' W 122°22'0 0.0
2014-Dec-14 22:32N 37°49' W 122°22'0 0.0
2014-Dec-14 21:32N 37°49' W 122°22'0 0.0
2014-Dec-14 20:32N 37°49' W 122°22'0 0.0
2014-Dec-14 19:32N 37°49' W 122°22'0 0.0
2014-Dec-14 18:32N 37°49' W 122°22'0 0.0
2014-Dec-14 17:33N 37°49' W 122°22'0 0.0
2014-Dec-14 16:32N 37°49' W 122°22'0 0.0
2014-Dec-14 15:32N 37°49' W 122°22'0 0.0
2014-Dec-14 14:32N 37°49' W 122°22'0 0.0
2014-Dec-14 13:32N 37°49' W 122°22'0 0.0
2014-Dec-14 12:29N 37°49' W 122°22'0 0.0
2014-Dec-14 11:32N 37°49' W 122°22'0 0.0
2014-Dec-14 10:33N 37°49' W 122°22'0 0.0
2014-Dec-14 09:33N 37°49' W 122°22'0 0.0
2014-Dec-14 08:32N 37°49' W 122°22'0 0.0
2014-Dec-14 07:29N 37°49' W 122°22'0 0.0
2014-Dec-14 06:32N 37°49' W 122°22'0 0.0
2014-Dec-14 05:32N 37°49' W 122°22'0 0.0
2014-Dec-14 04:32N 37°49' W 122°22'0 0.0
2014-Dec-14 03:32N 37°49' W 122°22'0 0.0
2014-Dec-14 02:32N 37°49' W 122°22'0 0.0
2014-Dec-14 01:33N 37°49' W 122°22'0 0.0
2014-Dec-14 00:32N 37°49' W 122°22'0 0.0
2014-Dec-13 23:32N 37°49' W 122°22'0 0.0
2014-Dec-13 22:32N 37°49' W 122°22'0 0.0
2014-Dec-13 21:32N 37°49' W 122°22'0 0.0
2014-Dec-13 20:32N 37°49' W 122°22'0 0.0
2014-Dec-13 19:32N 37°49' W 122°22'0 0.0
2014-Dec-13 18:33N 37°49' W 122°22'0 0.0
2014-Dec-13 17:29N 37°49' W 122°22'0 0.0
2014-Dec-13 16:29N 37°49' W 122°22'0 0.0
2014-Dec-13 15:32N 37°49' W 122°22'0 0.0
2014-Dec-13 14:32N 37°49' W 122°22'0 0.0
2014-Dec-13 13:32N 37°49' W 122°22'0 0.0
2014-Dec-13 12:32N 37°49' W 122°22'0 0.0
2014-Dec-13 11:32N 37°49' W 122°22'0 0.0
2014-Dec-13 10:32N 37°49' W 122°22'0 0.0
2014-Dec-13 09:32N 37°49' W 122°22'0 0.0
2014-Dec-13 08:33N 37°49' W 122°22'0 0.0
2014-Dec-13 07:33N 37°49' W 122°22'0 0.0
2014-Dec-13 06:33N 37°49' W 122°22'0 0.0
2014-Dec-13 05:32N 37°49' W 122°22'0 0.0
2014-Dec-13 04:32N 37°49' W 122°22'0 0.0
2014-Dec-13 03:32N 37°49' W 122°22'0 0.0
2014-Dec-13 02:32N 37°49' W 122°22'0 0.0
2014-Dec-13 01:32N 37°49' W 122°22'0 0.0
2014-Dec-13 00:32N 37°49' W 122°22'0 0.0
2014-Dec-12 23:32N 37°49' W 122°22'0 0.0
2014-Dec-12 22:32N 37°49' W 122°22'0 0.0
2014-Dec-12 21:33N 37°49' W 122°22'0 0.0
2014-Dec-12 20:33N 37°49' W 122°22'0 0.0
2014-Dec-12 19:32N 37°49' W 122°22'0 0.0
2014-Dec-12 18:32N 37°49' W 122°22'  
Track history (hours):
 
Tides and Currents Weather Stations Pressure Air Temp Water Temp Dewpoint Dewpoint Depression Visibility Wind Speed Wind Dir Waves Ship Positions

USCGC Tern

Last reported at 2014-Dec-22 18:30 UTC. Time now 2014-Dec-22 19:26 UTC.
Position N 37°49' W 122°22'.

Length 26 m; draft 12 m.

Type: Military. MMSI: 366999711.

Date/timePositionNaut miles runAvg speedWind from/ knotsBaromVisibWave heightAir tempDewpointWater temp
2014-Dec-22 18:30N 37°49' W 122°22'0 0.0
2014-Dec-22 17:32N 37°49' W 122°22'0 0.1
2014-Dec-22 16:33N 37°49' W 122°22'73 3.8
2014-Dec-21 21:25N 36°39' W 121°54'2 2.2
2014-Dec-21 20:30N 36°37' W 121°53'0 0.0
2014-Dec-21 19:28N 36°37' W 121°53'0 0.0
2014-Dec-21 18:28N 36°37' W 121°53'0 0.0
2014-Dec-21 17:34N 36°37' W 121°53'0 0.0
2014-Dec-21 16:25N 36°37' W 121°53'71 1.6
2014-Dec-19 20:33N 37°38' W 122°37'7 7.4
2014-Dec-19 19:33N 37°45' W 122°36'9 8.6
2014-Dec-19 18:28N 37°49' W 122°25'1 0.7
2014-Dec-19 17:33N 37°49' W 122°25'2 2.2
2014-Dec-19 16:31N 37°49' W 122°22'0 0.0
2014-Dec-19 15:22N 37°49' W 122°22'0 0.0
2014-Dec-19 14:31N 37°49' W 122°22'0 0.0
2014-Dec-19 13:31N 37°49' W 122°22'0 0.0
2014-Dec-19 12:31N 37°49' W 122°22'0 0.0
2014-Dec-19 11:31N 37°49' W 122°22'0 0.0
2014-Dec-19 10:31N 37°49' W 122°22'0 0.0
2014-Dec-19 09:31N 37°49' W 122°22'0 0.0
2014-Dec-19 08:31N 37°49' W 122°22'0 0.0
2014-Dec-19 07:28N 37°49' W 122°22'0 0.0
2014-Dec-19 06:31N 37°49' W 122°22'0 0.0
2014-Dec-19 05:31N 37°49' W 122°22'0 0.0
2014-Dec-19 04:31N 37°49' W 122°22'0 0.0
2014-Dec-19 03:31N 37°49' W 122°22'0 0.0
2014-Dec-19 02:31N 37°49' W 122°22'0 0.0
2014-Dec-19 01:31N 37°49' W 122°22'0 0.0
2014-Dec-19 00:31N 37°49' W 122°22'0 0.0
2014-Dec-18 23:31N 37°49' W 122°22'0 0.0
2014-Dec-18 22:22N 37°49' W 122°22'1 1.7
2014-Dec-18 21:33N 37°48' W 122°21'0 0.1
2014-Dec-18 20:32N 37°48' W 122°20'1 0.6
2014-Dec-18 19:33N 37°48' W 122°21'8 7.6
2014-Dec-18 18:27N 37°54' W 122°28'0 0.0
2014-Dec-18 17:33N 37°54' W 122°28'0 0.0
2014-Dec-18 16:33N 37°54' W 122°28'0 0.0
2014-Dec-18 15:33N 37°54' W 122°28'0 0.0
2014-Dec-18 14:33N 37°54' W 122°28'0 0.0
2014-Dec-18 13:33N 37°54' W 122°28'0 0.0
2014-Dec-18 12:24N 37°54' W 122°28'0 0.0
2014-Dec-18 11:33N 37°54' W 122°28'0 0.0
2014-Dec-18 10:33N 37°54' W 122°28'0 0.0
2014-Dec-18 09:30N 37°54' W 122°28'0 0.0
2014-Dec-18 08:33N 37°54' W 122°28'0 0.0
2014-Dec-18 07:33N 37°54' W 122°28'0 0.0
2014-Dec-18 06:33N 37°54' W 122°28'0 0.0
2014-Dec-18 05:30N 37°54' W 122°28'0 0.0
2014-Dec-18 04:33N 37°54' W 122°28'0 0.0
2014-Dec-18 03:33N 37°54' W 122°28'0 0.0
2014-Dec-18 02:33N 37°54' W 122°28'0 0.0
2014-Dec-18 01:18N 37°54' W 122°28'0 0.0
2014-Dec-18 00:33N 37°54' W 122°28'0 0.0
2014-Dec-17 23:33N 37°54' W 122°28'0 0.0
2014-Dec-17 22:34N 37°54' W 122°28'0 0.0
2014-Dec-17 21:30N 37°54' W 122°28'0 0.0
2014-Dec-17 20:33N 37°54' W 122°28'0 0.0
2014-Dec-17 19:33N 37°54' W 122°28'0 0.1
2014-Dec-17 18:34N 37°54' W 122°28'7 7.3
2014-Dec-17 17:33N 37°49' W 122°22'0 0.0
2014-Dec-17 16:30N 37°49' W 122°22'0 0.0
2014-Dec-17 15:33N 37°49' W 122°22'0 0.1
2014-Dec-17 14:33N 37°49' W 122°22'8 7.5
2014-Dec-17 13:32N 37°54' W 122°28'0 0.0
2014-Dec-17 12:23N 37°54' W 122°28'0 0.0
2014-Dec-17 11:32N 37°54' W 122°28'0 0.0
2014-Dec-17 10:32N 37°54' W 122°28'0 0.0
2014-Dec-17 09:32N 37°54' W 122°28'0 0.0
2014-Dec-17 08:32N 37°54' W 122°28'0 0.0
2014-Dec-17 07:32N 37°54' W 122°28'0 0.0
2014-Dec-17 06:29N 37°54' W 122°28'0 0.0
2014-Dec-17 05:31N 37°54' W 122°28'0 0.0
2014-Dec-17 04:31N 37°54' W 122°28'0 0.0
2014-Dec-17 03:32N 37°54' W 122°28'0 0.0
2014-Dec-17 02:29N 37°54' W 122°28'0 0.0
2014-Dec-17 01:29N 37°54' W 122°28'0 0.0
2014-Dec-17 00:32N 37°54' W 122°28'2 2.0
2014-Dec-16 23:33N 37°56' W 122°27'6 5.7
2014-Dec-16 22:33N 37°51' W 122°24'2 2.1
2014-Dec-16 21:33N 37°53' W 122°25'0 0.3
2014-Dec-16 20:33N 37°53' W 122°25'2 2.4
2014-Dec-16 19:33N 37°54' W 122°28'0 0.0
2014-Dec-16 18:33N 37°54' W 122°28'0 0.0
2014-Dec-16 17:27N 37°54' W 122°28'0 0.1
2014-Dec-16 16:33N 37°54' W 122°28'0 0.0
2014-Dec-16 15:33N 37°54' W 122°28'0 0.0
2014-Dec-16 14:33N 37°54' W 122°28'0 0.0
2014-Dec-16 13:32N 37°54' W 122°28'0 0.0
2014-Dec-16 12:32N 37°54' W 122°28'0 0.0
2014-Dec-16 11:32N 37°54' W 122°28'0 0.1
2014-Dec-16 10:33N 37°54' W 122°28'0 0.0
2014-Dec-16 09:33N 37°54' W 122°28'0 0.1
2014-Dec-16 08:33N 37°54' W 122°28'0 0.0
2014-Dec-16 07:33N 37°54' W 122°28'0 0.0
2014-Dec-16 06:33N 37°54' W 122°28'0 0.0
2014-Dec-16 05:27N 37°54' W 122°28'0 0.0
2014-Dec-16 04:33N 37°54' W 122°28'0 0.0
2014-Dec-16 03:23N 37°54' W 122°28'0 0.0
2014-Dec-16 02:12N 37°54' W 122°28'0 0.0
2014-Dec-16 01:17N 37°54' W 122°28'0 0.0
2014-Dec-15 23:33N 37°54' W 122°28'3 3.0
2014-Dec-15 22:33N 37°52' W 122°25'1 0.9
2014-Dec-15 21:33N 37°53' W 122°26'1 0.7
2014-Dec-15 20:34N 37°54' W 122°26'2 2.0
2014-Dec-15 19:34N 37°52' W 122°25'4 4.1
2014-Dec-15 18:32N 37°49' W 122°22'0 0.0
2014-Dec-15 17:20N 37°49' W 122°22'0 0.0
2014-Dec-15 16:32N 37°49' W 122°22'0 0.0
2014-Dec-15 15:29N 37°49' W 122°22'0 0.0
2014-Dec-15 14:32N 37°49' W 122°22'0 0.0
2014-Dec-15 13:24N 37°49' W 122°22'0 0.0
2014-Dec-15 12:23N 37°49' W 122°22'0 0.0
2014-Dec-15 11:27N 37°49' W 122°22'0 0.0
2014-Dec-15 10:29N 37°49' W 122°22'0 0.0
2014-Dec-15 09:32N 37°49' W 122°22'0 0.0
2014-Dec-15 08:32N 37°49' W 122°22'0 0.0
2014-Dec-15 07:32N 37°49' W 122°22'0 0.0
2014-Dec-15 06:32N 37°49' W 122°22'0 0.0
2014-Dec-15 05:32N 37°49' W 122°22'0 0.0
2014-Dec-15 04:32N 37°49' W 122°22'0 0.0
2014-Dec-15 03:32N 37°49' W 122°22'0 0.0
2014-Dec-15 02:32N 37°49' W 122°22'0 0.0
2014-Dec-15 01:27N 37°49' W 122°22'0 0.0
2014-Dec-15 00:32N 37°49' W 122°22'0 0.0
2014-Dec-14 23:32N 37°49' W 122°22'0 0.0
2014-Dec-14 22:32N 37°49' W 122°22'0 0.0
2014-Dec-14 21:32N 37°49' W 122°22'0 0.0
2014-Dec-14 20:32N 37°49' W 122°22'0 0.0
2014-Dec-14 19:32N 37°49' W 122°22'0 0.0
2014-Dec-14 18:32N 37°49' W 122°22'0 0.0
2014-Dec-14 17:33N 37°49' W 122°22'0 0.0
2014-Dec-14 16:32N 37°49' W 122°22'0 0.0
2014-Dec-14 15:32N 37°49' W 122°22'0 0.0
2014-Dec-14 14:32N 37°49' W 122°22'0 0.0
2014-Dec-14 13:32N 37°49' W 122°22'0 0.0
2014-Dec-14 12:29N 37°49' W 122°22'0 0.0
2014-Dec-14 11:32N 37°49' W 122°22'0 0.0
2014-Dec-14 10:33N 37°49' W 122°22'0 0.0
2014-Dec-14 09:33N 37°49' W 122°22'0 0.0
2014-Dec-14 08:32N 37°49' W 122°22'0 0.0
2014-Dec-14 07:29N 37°49' W 122°22'0 0.0
2014-Dec-14 06:32N 37°49' W 122°22'0 0.0
2014-Dec-14 05:32N 37°49' W 122°22'0 0.0
2014-Dec-14 04:32N 37°49' W 122°22'0 0.0
2014-Dec-14 03:32N 37°49' W 122°22'0 0.0
2014-Dec-14 02:32N 37°49' W 122°22'0 0.0
2014-Dec-14 01:33N 37°49' W 122°22'0 0.0
2014-Dec-14 00:32N 37°49' W 122°22'0 0.0
2014-Dec-13 23:32N 37°49' W 122°22'0 0.0
2014-Dec-13 22:32N 37°49' W 122°22'0 0.0
2014-Dec-13 21:32N 37°49' W 122°22'0 0.0
2014-Dec-13 20:32N 37°49' W 122°22'0 0.0
2014-Dec-13 19:32N 37°49' W 122°22'0 0.0
2014-Dec-13 18:33N 37°49' W 122°22'0 0.0
2014-Dec-13 17:29N 37°49' W 122°22'0 0.0
2014-Dec-13 16:29N 37°49' W 122°22'0 0.0
2014-Dec-13 15:32N 37°49' W 122°22'0 0.0
2014-Dec-13 14:32N 37°49' W 122°22'0 0.0
2014-Dec-13 13:32N 37°49' W 122°22'0 0.0
2014-Dec-13 12:32N 37°49' W 122°22'0 0.0
2014-Dec-13 11:32N 37°49' W 122°22'0 0.0
2014-Dec-13 10:32N 37°49' W 122°22'0 0.0
2014-Dec-13 09:32N 37°49' W 122°22'0 0.0
2014-Dec-13 08:33N 37°49' W 122°22'0 0.0
2014-Dec-13 07:33N 37°49' W 122°22'0 0.0
2014-Dec-13 06:33N 37°49' W 122°22'0 0.0
2014-Dec-13 05:32N 37°49' W 122°22'0 0.0
2014-Dec-13 04:32N 37°49' W 122°22'0 0.0
2014-Dec-13 03:32N 37°49' W 122°22'0 0.0
2014-Dec-13 02:32N 37°49' W 122°22'0 0.0
2014-Dec-13 01:32N 37°49' W 122°22'0 0.0
2014-Dec-13 00:32N 37°49' W 122°22'0 0.0
2014-Dec-12 23:32N 37°49' W 122°22'0 0.0
2014-Dec-12 22:32N 37°49' W 122°22'0 0.0
2014-Dec-12 21:33N 37°49' W 122°22'0 0.0
2014-Dec-12 20:33N 37°49' W 122°22'0 0.0
2014-Dec-12 19:32N 37°49' W 122°22'0 0.0
2014-Dec-12 18:32N 37°49' W 122°22'  

Dump ship's entire track history